sensor_id;sensor_type;location;lat;lon;timestamp;temperature;humidity
20712;DHT22;10517;50.742;4.224;2022-10-20T00:01:01;13.40;99.90
20712;DHT22;10517;50.742;4.224;2022-10-20T00:03:27;13.40;99.90
20712;DHT22;10517;50.742;4.224;2022-10-20T00:05:54;13.20;99.90
20712;DHT22;10517;50.742;4.224;2022-10-20T00:08:20;13.30;99.90
20712;DHT22;10517;50.742;4.224;2022-10-20T00:10:56;13.20;99.90
20712;DHT22;10517;50.742;4.224;2022-10-20T00:13:22;13.00;99.90
20712;DHT22;10517;50.742;4.224;2022-10-20T00:15:49;13.00;99.90
20712;DHT22;10517;50.742;4.224;2022-10-20T00:18:15;13.00;99.90
20712;DHT22;10517;50.742;4.224;2022-10-20T00:20:41;12.90;99.90
20712;DHT22;10517;50.742;4.224;2022-10-20T00:23:06;13.00;99.90
20712;DHT22;10517;50.742;4.224;2022-10-20T00:25:32;13.00;99.90
20712;DHT22;10517;50.742;4.224;2022-10-20T00:27:57;13.00;99.90
20712;DHT22;10517;50.742;4.224;2022-10-20T00:30:23;12.90;99.90
20712;DHT22;10517;50.742;4.224;2022-10-20T00:32:48;12.90;99.90
20712;DHT22;10517;50.742;4.224;2022-10-20T00:35:14;12.80;99.90
20712;DHT22;10517;50.742;4.224;2022-10-20T00:37:40;12.80;99.90
20712;DHT22;10517;50.742;4.224;2022-10-20T00:40:05;12.80;99.90
20712;DHT22;10517;50.742;4.224;2022-10-20T00:42:31;12.70;99.90
20712;DHT22;10517;50.742;4.224;2022-10-20T00:44:58;12.70;99.90
20712;DHT22;10517;50.742;4.224;2022-10-20T00:50:25;12.70;99.90
20712;DHT22;10517;50.742;4.224;2022-10-20T00:52:53;12.60;99.90
20712;DHT22;10517;50.742;4.224;2022-10-20T00:55:24;12.50;99.90
20712;DHT22;10517;50.742;4.224;2022-10-20T00:57:53;12.60;99.90
20712;DHT22;10517;50.742;4.224;2022-10-20T01:00:20;12.50;99.90
20712;DHT22;10517;50.742;4.224;2022-10-20T01:02:45;12.50;99.90
20712;DHT22;10517;50.742;4.224;2022-10-20T01:05:13;12.50;99.90
20712;DHT22;10517;50.742;4.224;2022-10-20T01:07:38;12.40;99.90
20712;DHT22;10517;50.742;4.224;2022-10-20T01:10:05;12.40;99.90
20712;DHT22;10517;50.742;4.224;2022-10-20T01:15:30;12.50;99.90
20712;DHT22;10517;50.742;4.224;2022-10-20T01:18:07;12.50;99.90
20712;DHT22;10517;50.742;4.224;2022-10-20T01:23:51;12.50;99.90
20712;DHT22;10517;50.742;4.224;2022-10-20T01:32:07;12.60;99.90
20712;DHT22;10517;50.742;4.224;2022-10-20T01:37:07;12.70;99.90
20712;DHT22;10517;50.742;4.224;2022-10-20T01:39:45;12.90;99.90
20712;DHT22;10517;50.742;4.224;2022-10-20T01:42:21;13.10;99.90
20712;DHT22;10517;50.742;4.224;2022-10-20T01:44:52;13.00;99.90
20712;DHT22;10517;50.742;4.224;2022-10-20T01:47:20;13.10;99.90
20712;DHT22;10517;50.742;4.224;2022-10-20T01:49:47;13.10;99.90
20712;DHT22;10517;50.742;4.224;2022-10-20T01:52:13;13.10;99.90
20712;DHT22;10517;50.742;4.224;2022-10-20T01:54:39;13.10;99.90
20712;DHT22;10517;50.742;4.224;2022-10-20T01:57:21;13.10;99.90
20712;DHT22;10517;50.742;4.224;2022-10-20T02:00:10;13.10;99.90
20712;DHT22;10517;50.742;4.224;2022-10-20T02:07:55;13.20;99.90
20712;DHT22;10517;50.742;4.224;2022-10-20T02:10:28;13.20;99.90
20712;DHT22;10517;50.742;4.224;2022-10-20T02:12:59;13.20;99.90
20712;DHT22;10517;50.742;4.224;2022-10-20T02:15:27;13.20;99.90
20712;DHT22;10517;50.742;4.224;2022-10-20T02:17:59;13.20;99.90
20712;DHT22;10517;50.742;4.224;2022-10-20T02:20:25;13.10;99.90
20712;DHT22;10517;50.742;4.224;2022-10-20T02:22:51;13.20;99.90
20712;DHT22;10517;50.742;4.224;2022-10-20T02:25:17;13.10;99.90
20712;DHT22;10517;50.742;4.224;2022-10-20T02:27:46;13.10;99.90
20712;DHT22;10517;50.742;4.224;2022-10-20T02:30:15;13.20;99.90
20712;DHT22;10517;50.742;4.224;2022-10-20T02:32:42;13.10;99.90
20712;DHT22;10517;50.742;4.224;2022-10-20T02:35:12;13.10;99.90
20712;DHT22;10517;50.742;4.224;2022-10-20T02:37:39;13.10;99.90
20712;DHT22;10517;50.742;4.224;2022-10-20T02:40:05;13.20;99.90
20712;DHT22;10517;50.742;4.224;2022-10-20T02:42:30;13.20;99.90
20712;DHT22;10517;50.742;4.224;2022-10-20T02:44:56;13.30;99.90
20712;DHT22;10517;50.742;4.224;2022-10-20T02:47:22;13.40;99.90
20712;DHT22;10517;50.742;4.224;2022-10-20T02:49:47;13.50;99.90
20712;DHT22;10517;50.742;4.224;2022-10-20T02:52:14;13.50;99.90
20712;DHT22;10517;50.742;4.224;2022-10-20T02:54:39;13.40;99.90
20712;DHT22;10517;50.742;4.224;2022-10-20T02:57:05;13.40;99.90
20712;DHT22;10517;50.742;4.224;2022-10-20T02:59:31;13.50;99.90
20712;DHT22;10517;50.742;4.224;2022-10-20T03:01:57;13.40;99.90
20712;DHT22;10517;50.742;4.224;2022-10-20T03:04:23;13.40;99.90
20712;DHT22;10517;50.742;4.224;2022-10-20T03:06:48;13.40;99.90
20712;DHT22;10517;50.742;4.224;2022-10-20T03:09:14;13.60;99.90
20712;DHT22;10517;50.742;4.224;2022-10-20T03:11:39;13.60;99.90
20712;DHT22;10517;50.742;4.224;2022-10-20T03:14:05;13.50;99.90
20712;DHT22;10517;50.742;4.224;2022-10-20T03:16:30;13.50;99.90
20712;DHT22;10517;50.742;4.224;2022-10-20T03:18:56;13.50;99.90
20712;DHT22;10517;50.742;4.224;2022-10-20T03:21:22;13.30;99.90
20712;DHT22;10517;50.742;4.224;2022-10-20T03:23:47;13.30;99.90
20712;DHT22;10517;50.742;4.224;2022-10-20T03:26:13;13.30;99.90
20712;DHT22;10517;50.742;4.224;2022-10-20T03:28:39;13.30;99.90
20712;DHT22;10517;50.742;4.224;2022-10-20T03:31:06;13.20;99.90
20712;DHT22;10517;50.742;4.224;2022-10-20T03:33:32;13.20;99.90
20712;DHT22;10517;50.742;4.224;2022-10-20T03:35:57;13.10;99.90
20712;DHT22;10517;50.742;4.224;2022-10-20T03:38:23;13.00;99.90
20712;DHT22;10517;50.742;4.224;2022-10-20T03:40:48;13.00;99.90
20712;DHT22;10517;50.742;4.224;2022-10-20T03:43:14;13.00;99.90
20712;DHT22;10517;50.742;4.224;2022-10-20T03:45:41;13.00;99.90
20712;DHT22;10517;50.742;4.224;2022-10-20T03:48:07;12.90;99.90
20712;DHT22;10517;50.742;4.224;2022-10-20T03:50:32;12.90;99.90
20712;DHT22;10517;50.742;4.224;2022-10-20T03:52:58;12.90;99.90
20712;DHT22;10517;50.742;4.224;2022-10-20T03:55:24;12.80;99.90
20712;DHT22;10517;50.742;4.224;2022-10-20T03:57:49;12.80;99.90
20712;DHT22;10517;50.742;4.224;2022-10-20T04:00:15;12.80;99.90
20712;DHT22;10517;50.742;4.224;2022-10-20T04:02:42;12.80;99.90
20712;DHT22;10517;50.742;4.224;2022-10-20T04:05:10;12.70;99.90
20712;DHT22;10517;50.742;4.224;2022-10-20T04:07:37;12.60;99.90
20712;DHT22;10517;50.742;4.224;2022-10-20T04:10:03;12.60;99.90
20712;DHT22;10517;50.742;4.224;2022-10-20T04:12:29;12.50;99.90
20712;DHT22;10517;50.742;4.224;2022-10-20T04:14:55;12.50;99.90
20712;DHT22;10517;50.742;4.224;2022-10-20T04:17:20;12.50;99.90
20712;DHT22;10517;50.742;4.224;2022-10-20T04:19:46;12.50;99.90
20712;DHT22;10517;50.742;4.224;2022-10-20T04:22:12;12.50;99.90
20712;DHT22;10517;50.742;4.224;2022-10-20T04:24:37;12.40;99.90
20712;DHT22;10517;50.742;4.224;2022-10-20T04:27:03;12.50;99.90
20712;DHT22;10517;50.742;4.224;2022-10-20T04:29:29;12.50;99.90
20712;DHT22;10517;50.742;4.224;2022-10-20T04:31:55;12.50;99.90
20712;DHT22;10517;50.742;4.224;2022-10-20T04:34:21;12.50;99.90
20712;DHT22;10517;50.742;4.224;2022-10-20T04:36:46;12.50;99.90
20712;DHT22;10517;50.742;4.224;2022-10-20T04:39:12;12.50;99.90
20712;DHT22;10517;50.742;4.224;2022-10-20T04:41:38;12.60;99.90
20712;DHT22;10517;50.742;4.224;2022-10-20T04:44:03;12.60;99.90
20712;DHT22;10517;50.742;4.224;2022-10-20T04:46:29;12.60;99.90
20712;DHT22;10517;50.742;4.224;2022-10-20T04:48:54;12.60;99.90
20712;DHT22;10517;50.742;4.224;2022-10-20T04:51:20;12.70;99.90
20712;DHT22;10517;50.742;4.224;2022-10-20T04:53:46;12.70;99.90
20712;DHT22;10517;50.742;4.224;2022-10-20T04:56:14;12.70;99.90
20712;DHT22;10517;50.742;4.224;2022-10-20T04:58:48;12.70;99.90
20712;DHT22;10517;50.742;4.224;2022-10-20T05:01:13;12.70;99.90
20712;DHT22;10517;50.742;4.224;2022-10-20T05:03:39;12.80;99.90
20712;DHT22;10517;50.742;4.224;2022-10-20T05:06:10;12.80;99.90
20712;DHT22;10517;50.742;4.224;2022-10-20T05:08:37;12.80;99.90
20712;DHT22;10517;50.742;4.224;2022-10-20T05:11:03;12.80;99.90
20712;DHT22;10517;50.742;4.224;2022-10-20T05:13:28;12.80;99.90
20712;DHT22;10517;50.742;4.224;2022-10-20T05:15:54;12.80;99.90
20712;DHT22;10517;50.742;4.224;2022-10-20T05:18:20;12.90;99.90
20712;DHT22;10517;50.742;4.224;2022-10-20T05:20:45;13.00;99.90
20712;DHT22;10517;50.742;4.224;2022-10-20T05:23:11;13.00;99.90
20712;DHT22;10517;50.742;4.224;2022-10-20T05:25:37;12.90;99.90
20712;DHT22;10517;50.742;4.224;2022-10-20T05:28:03;13.00;99.90
20712;DHT22;10517;50.742;4.224;2022-10-20T05:30:29;13.00;99.90
20712;DHT22;10517;50.742;4.224;2022-10-20T05:32:55;13.10;99.90
20712;DHT22;10517;50.742;4.224;2022-10-20T05:35:20;13.10;99.90
20712;DHT22;10517;50.742;4.224;2022-10-20T05:37:46;13.10;99.90
20712;DHT22;10517;50.742;4.224;2022-10-20T05:40:11;13.20;99.90
20712;DHT22;10517;50.742;4.224;2022-10-20T05:42:37;13.30;99.90
20712;DHT22;10517;50.742;4.224;2022-10-20T05:45:04;13.30;99.90
20712;DHT22;10517;50.742;4.224;2022-10-20T05:47:30;13.40;99.90
20712;DHT22;10517;50.742;4.224;2022-10-20T05:49:55;13.40;99.90
20712;DHT22;10517;50.742;4.224;2022-10-20T05:52:21;13.50;99.90
20712;DHT22;10517;50.742;4.224;2022-10-20T05:54:46;13.60;99.90
20712;DHT22;10517;50.742;4.224;2022-10-20T05:57:12;13.60;99.90
20712;DHT22;10517;50.742;4.224;2022-10-20T05:59:38;13.60;99.90
20712;DHT22;10517;50.742;4.224;2022-10-20T06:02:03;13.60;99.90
20712;DHT22;10517;50.742;4.224;2022-10-20T06:04:29;13.60;99.90
20712;DHT22;10517;50.742;4.224;2022-10-20T06:06:55;13.70;99.90
20712;DHT22;10517;50.742;4.224;2022-10-20T06:09:22;13.80;99.90
20712;DHT22;10517;50.742;4.224;2022-10-20T06:11:49;14.00;99.90
20712;DHT22;10517;50.742;4.224;2022-10-20T06:14:15;14.00;99.90
20712;DHT22;10517;50.742;4.224;2022-10-20T06:16:42;13.90;99.90
20712;DHT22;10517;50.742;4.224;2022-10-20T06:19:08;14.10;99.90
20712;DHT22;10517;50.742;4.224;2022-10-20T06:21:34;14.10;99.90
20712;DHT22;10517;50.742;4.224;2022-10-20T06:24:01;14.20;99.90
20712;DHT22;10517;50.742;4.224;2022-10-20T06:26:30;14.20;99.90
20712;DHT22;10517;50.742;4.224;2022-10-20T06:28:59;14.40;99.90
20712;DHT22;10517;50.742;4.224;2022-10-20T06:31:26;14.40;99.90
20712;DHT22;10517;50.742;4.224;2022-10-20T06:33:52;14.40;99.90
20712;DHT22;10517;50.742;4.224;2022-10-20T06:36:19;14.50;99.90
20712;DHT22;10517;50.742;4.224;2022-10-20T06:38:45;14.50;99.90
20712;DHT22;10517;50.742;4.224;2022-10-20T06:41:13;14.50;99.90
20712;DHT22;10517;50.742;4.224;2022-10-20T06:43:40;14.40;99.90
20712;DHT22;10517;50.742;4.224;2022-10-20T06:46:09;14.60;99.90
20712;DHT22;10517;50.742;4.224;2022-10-20T06:48:35;14.70;99.90
20712;DHT22;10517;50.742;4.224;2022-10-20T06:51:07;14.70;99.90
20712;DHT22;10517;50.742;4.224;2022-10-20T06:53:33;14.70;99.90
20712;DHT22;10517;50.742;4.224;2022-10-20T06:56:01;14.70;99.90
20712;DHT22;10517;50.742;4.224;2022-10-20T06:58:28;14.80;99.90
20712;DHT22;10517;50.742;4.224;2022-10-20T07:03:24;14.70;99.90
20712;DHT22;10517;50.742;4.224;2022-10-20T07:05:50;14.80;99.90
20712;DHT22;10517;50.742;4.224;2022-10-20T07:08:15;15.00;99.90
20712;DHT22;10517;50.742;4.224;2022-10-20T07:10:41;15.10;99.90
20712;DHT22;10517;50.742;4.224;2022-10-20T07:13:06;15.20;99.90
20712;DHT22;10517;50.742;4.224;2022-10-20T07:15:32;15.30;99.90
20712;DHT22;10517;50.742;4.224;2022-10-20T07:17:57;15.40;99.90
20712;DHT22;10517;50.742;4.224;2022-10-20T07:20:23;15.50;99.90
20712;DHT22;10517;50.742;4.224;2022-10-20T07:22:48;15.50;99.90
20712;DHT22;10517;50.742;4.224;2022-10-20T07:25:14;15.50;99.90
20712;DHT22;10517;50.742;4.224;2022-10-20T07:27:40;15.60;99.90
20712;DHT22;10517;50.742;4.224;2022-10-20T07:30:05;15.60;99.90
20712;DHT22;10517;50.742;4.224;2022-10-20T07:32:31;15.60;99.90
20712;DHT22;10517;50.742;4.224;2022-10-20T07:34:57;15.60;99.90
20712;DHT22;10517;50.742;4.224;2022-10-20T07:37:22;15.70;99.90
20712;DHT22;10517;50.742;4.224;2022-10-20T07:39:48;15.80;99.90
20712;DHT22;10517;50.742;4.224;2022-10-20T07:42:13;15.90;99.90
20712;DHT22;10517;50.742;4.224;2022-10-20T07:44:39;16.00;99.90
20712;DHT22;10517;50.742;4.224;2022-10-20T07:47:04;16.00;99.90
20712;DHT22;10517;50.742;4.224;2022-10-20T07:49:30;16.00;99.90
20712;DHT22;10517;50.742;4.224;2022-10-20T07:51:55;16.00;99.90
20712;DHT22;10517;50.742;4.224;2022-10-20T07:54:21;16.00;99.90
20712;DHT22;10517;50.742;4.224;2022-10-20T07:56:47;16.00;99.90
20712;DHT22;10517;50.742;4.224;2022-10-20T07:59:13;16.10;99.90
20712;DHT22;10517;50.742;4.224;2022-10-20T08:01:39;16.30;99.90
20712;DHT22;10517;50.742;4.224;2022-10-20T08:04:05;16.30;99.90
20712;DHT22;10517;50.742;4.224;2022-10-20T08:06:30;16.30;99.90
20712;DHT22;10517;50.742;4.224;2022-10-20T08:08:56;16.30;99.90
20712;DHT22;10517;50.742;4.224;2022-10-20T08:11:22;16.30;99.90
20712;DHT22;10517;50.742;4.224;2022-10-20T08:13:48;16.30;99.90
20712;DHT22;10517;50.742;4.224;2022-10-20T08:16:14;16.20;99.90
20712;DHT22;10517;50.742;4.224;2022-10-20T08:18:40;16.30;99.90
20712;DHT22;10517;50.742;4.224;2022-10-20T08:21:18;16.10;99.90
20712;DHT22;10517;50.742;4.224;2022-10-20T08:23:46;16.10;99.90
20712;DHT22;10517;50.742;4.224;2022-10-20T08:26:17;16.00;99.90
20712;DHT22;10517;50.742;4.224;2022-10-20T08:28:43;16.00;99.90
20712;DHT22;10517;50.742;4.224;2022-10-20T08:31:08;16.00;99.90
20712;DHT22;10517;50.742;4.224;2022-10-20T08:33:34;16.10;99.90
20712;DHT22;10517;50.742;4.224;2022-10-20T08:36:05;16.10;99.90
20712;DHT22;10517;50.742;4.224;2022-10-20T08:38:31;16.00;99.90
20712;DHT22;10517;50.742;4.224;2022-10-20T08:40:58;16.00;99.90
20712;DHT22;10517;50.742;4.224;2022-10-20T08:43:25;16.10;99.90
20712;DHT22;10517;50.742;4.224;2022-10-20T08:45:52;16.00;99.90
20712;DHT22;10517;50.742;4.224;2022-10-20T08:48:23;16.00;99.90
20712;DHT22;10517;50.742;4.224;2022-10-20T08:50:51;16.20;99.90
20712;DHT22;10517;50.742;4.224;2022-10-20T08:53:22;16.30;99.90
20712;DHT22;10517;50.742;4.224;2022-10-20T08:55:49;16.30;99.90
20712;DHT22;10517;50.742;4.224;2022-10-20T08:58:18;16.20;99.90
20712;DHT22;10517;50.742;4.224;2022-10-20T09:00:45;16.30;99.90
20712;DHT22;10517;50.742;4.224;2022-10-20T09:03:18;16.40;99.90
20712;DHT22;10517;50.742;4.224;2022-10-20T09:05:50;16.50;99.90
20712;DHT22;10517;50.742;4.224;2022-10-20T09:08:19;16.60;99.90
20712;DHT22;10517;50.742;4.224;2022-10-20T09:10:48;16.60;99.90
20712;DHT22;10517;50.742;4.224;2022-10-20T09:13:21;16.50;99.90
20712;DHT22;10517;50.742;4.224;2022-10-20T09:15:50;16.60;99.90
20712;DHT22;10517;50.742;4.224;2022-10-20T09:18:17;16.60;99.90
20712;DHT22;10517;50.742;4.224;2022-10-20T09:20:55;16.60;99.90
20712;DHT22;10517;50.742;4.224;2022-10-20T09:23:36;16.70;99.90
20712;DHT22;10517;50.742;4.224;2022-10-20T09:26:02;16.70;99.90
20712;DHT22;10517;50.742;4.224;2022-10-20T09:28:28;16.70;99.90
20712;DHT22;10517;50.742;4.224;2022-10-20T09:30:54;16.70;99.90
20712;DHT22;10517;50.742;4.224;2022-10-20T09:33:33;16.80;99.90
20712;DHT22;10517;50.742;4.224;2022-10-20T09:36:12;16.80;99.90
20712;DHT22;10517;50.742;4.224;2022-10-20T09:38:42;17.00;99.90
20712;DHT22;10517;50.742;4.224;2022-10-20T09:41:14;16.90;99.90
20712;DHT22;10517;50.742;4.224;2022-10-20T09:44:01;17.00;99.90
20712;DHT22;10517;50.742;4.224;2022-10-20T09:46:38;17.00;99.90
20712;DHT22;10517;50.742;4.224;2022-10-20T09:49:05;17.00;99.90
20712;DHT22;10517;50.742;4.224;2022-10-20T09:51:31;17.10;99.90
20712;DHT22;10517;50.742;4.224;2022-10-20T09:54:21;17.20;99.90
20712;DHT22;10517;50.742;4.224;2022-10-20T09:56:47;17.30;99.90
20712;DHT22;10517;50.742;4.224;2022-10-20T09:59:32;17.40;99.90
20712;DHT22;10517;50.742;4.224;2022-10-20T10:02:01;17.40;99.90
20712;DHT22;10517;50.742;4.224;2022-10-20T10:04:35;17.40;99.90
20712;DHT22;10517;50.742;4.224;2022-10-20T10:07:03;17.50;99.90
20712;DHT22;10517;50.742;4.224;2022-10-20T10:09:34;17.60;99.90
20712;DHT22;10517;50.742;4.224;2022-10-20T10:14:47;17.70;99.90
20712;DHT22;10517;50.742;4.224;2022-10-20T10:17:39;17.70;99.90
20712;DHT22;10517;50.742;4.224;2022-10-20T10:22:40;17.60;99.90
20712;DHT22;10517;50.742;4.224;2022-10-20T10:25:13;17.60;99.90
20712;DHT22;10517;50.742;4.224;2022-10-20T10:27:39;17.60;99.90
20712;DHT22;10517;50.742;4.224;2022-10-20T10:32:52;17.80;99.90
20712;DHT22;10517;50.742;4.224;2022-10-20T10:37:59;18.10;99.90
20712;DHT22;10517;50.742;4.224;2022-10-20T10:40:34;18.20;99.90
20712;DHT22;10517;50.742;4.224;2022-10-20T10:45:56;18.30;99.90
20712;DHT22;10517;50.742;4.224;2022-10-20T10:54:12;18.10;99.90
20712;DHT22;10517;50.742;4.224;2022-10-20T10:56:47;18.10;99.90
20712;DHT22;10517;50.742;4.224;2022-10-20T10:59:31;18.20;99.90
20712;DHT22;10517;50.742;4.224;2022-10-20T11:15:23;19.50;99.90
20712;DHT22;10517;50.742;4.224;2022-10-20T11:24:11;19.70;99.90
20712;DHT22;10517;50.742;4.224;2022-10-20T11:26:45;19.90;99.90
20712;DHT22;10517;50.742;4.224;2022-10-20T11:29:31;20.30;99.90
20712;DHT22;10517;50.742;4.224;2022-10-20T11:32:28;20.50;99.90
20712;DHT22;10517;50.742;4.224;2022-10-20T11:34:58;20.70;99.90
20712;DHT22;10517;50.742;4.224;2022-10-20T11:37:27;20.70;99.90
20712;DHT22;10517;50.742;4.224;2022-10-20T11:40:02;20.70;99.90
20712;DHT22;10517;50.742;4.224;2022-10-20T11:42:57;20.50;99.90
20712;DHT22;10517;50.742;4.224;2022-10-20T11:45:44;20.40;99.90
20712;DHT22;10517;50.742;4.224;2022-10-20T11:48:23;20.50;99.90
20712;DHT22;10517;50.742;4.224;2022-10-20T11:53:45;20.30;99.90
20712;DHT22;10517;50.742;4.224;2022-10-20T11:56:31;20.40;99.90
20712;DHT22;10517;50.742;4.224;2022-10-20T12:02:08;20.80;99.90
20712;DHT22;10517;50.742;4.224;2022-10-20T12:04:47;20.90;99.90
20712;DHT22;10517;50.742;4.224;2022-10-20T12:08:28;21.00;99.90
20712;DHT22;10517;50.742;4.224;2022-10-20T12:10:33;21.30;99.90
20712;DHT22;10517;50.742;4.224;2022-10-20T12:13:10;21.30;99.90
20712;DHT22;10517;50.742;4.224;2022-10-20T12:15:45;21.30;99.90
20712;DHT22;10517;50.742;4.224;2022-10-20T12:18:35;21.30;99.90
20712;DHT22;10517;50.742;4.224;2022-10-20T12:21:05;21.30;99.90
20712;DHT22;10517;50.742;4.224;2022-10-20T12:28:57;21.40;99.90
20712;DHT22;10517;50.742;4.224;2022-10-20T12:31:24;21.40;99.90
20712;DHT22;10517;50.742;4.224;2022-10-20T12:38:52;22.00;99.90
20712;DHT22;10517;50.742;4.224;2022-10-20T12:41:30;22.30;99.90
20712;DHT22;10517;50.742;4.224;2022-10-20T12:44:12;22.40;99.90
20712;DHT22;10517;50.742;4.224;2022-10-20T12:46:51;22.60;99.90
20712;DHT22;10517;50.742;4.224;2022-10-20T12:49:25;22.90;99.90
20712;DHT22;10517;50.742;4.224;2022-10-20T12:51:54;23.40;99.90
20712;DHT22;10517;50.742;4.224;2022-10-20T12:54:34;23.70;99.90
20712;DHT22;10517;50.742;4.224;2022-10-20T12:59:47;23.90;99.90
20712;DHT22;10517;50.742;4.224;2022-10-20T13:04:59;24.10;99.90
20712;DHT22;10517;50.742;4.224;2022-10-20T13:10:35;24.30;99.90
20712;DHT22;10517;50.742;4.224;2022-10-20T13:25:56;23.60;99.90
20712;DHT22;10517;50.742;4.224;2022-10-20T13:28:24;24.60;99.90
20712;DHT22;10517;50.742;4.224;2022-10-20T13:36:23;25.20;99.90
20712;DHT22;10517;50.742;4.224;2022-10-20T13:39:14;25.50;99.90
20712;DHT22;10517;50.742;4.224;2022-10-20T13:41:42;26.20;99.90
20712;DHT22;10517;50.742;4.224;2022-10-20T13:44:21;26.70;99.90
20712;DHT22;10517;50.742;4.224;2022-10-20T13:47:31;26.60;99.90
20712;DHT22;10517;50.742;4.224;2022-10-20T13:50:27;27.10;99.90
20712;DHT22;10517;50.742;4.224;2022-10-20T13:52:56;28.30;99.90
20712;DHT22;10517;50.742;4.224;2022-10-20T13:55:26;29.10;99.90
20712;DHT22;10517;50.742;4.224;2022-10-20T13:57:58;29.20;99.90
20712;DHT22;10517;50.742;4.224;2022-10-20T14:00:31;29.40;99.90
20712;DHT22;10517;50.742;4.224;2022-10-20T14:03:00;30.30;99.90
20712;DHT22;10517;50.742;4.224;2022-10-20T14:05:28;30.60;99.90
20712;DHT22;10517;50.742;4.224;2022-10-20T14:07:54;31.00;99.90
20712;DHT22;10517;50.742;4.224;2022-10-20T14:13:26;30.80;99.90
20712;DHT22;10517;50.742;4.224;2022-10-20T14:15:55;30.90;99.90
20712;DHT22;10517;50.742;4.224;2022-10-20T14:18:30;31.50;99.90
20712;DHT22;10517;50.742;4.224;2022-10-20T14:20:59;31.20;99.90
20712;DHT22;10517;50.742;4.224;2022-10-20T14:23:37;31.50;99.90
20712;DHT22;10517;50.742;4.224;2022-10-20T14:26:06;31.90;99.90
20712;DHT22;10517;50.742;4.224;2022-10-20T14:28:35;32.00;99.90
20712;DHT22;10517;50.742;4.224;2022-10-20T14:31:01;32.30;99.90
20712;DHT22;10517;50.742;4.224;2022-10-20T14:33:28;32.30;99.90
20712;DHT22;10517;50.742;4.224;2022-10-20T14:35:57;32.00;99.90
20712;DHT22;10517;50.742;4.224;2022-10-20T14:38:34;31.40;99.90
20712;DHT22;10517;50.742;4.224;2022-10-20T14:41:02;31.00;99.90
20712;DHT22;10517;50.742;4.224;2022-10-20T14:43:42;30.60;99.90
20712;DHT22;10517;50.742;4.224;2022-10-20T14:46:11;29.90;99.90
20712;DHT22;10517;50.742;4.224;2022-10-20T14:48:44;29.30;99.90
20712;DHT22;10517;50.742;4.224;2022-10-20T14:56:49;26.50;99.90
20712;DHT22;10517;50.742;4.224;2022-10-20T14:59:18;25.70;99.90
20712;DHT22;10517;50.742;4.224;2022-10-20T15:04:43;24.50;99.90
20712;DHT22;10517;50.742;4.224;2022-10-20T15:07:16;24.10;99.90
20712;DHT22;10517;50.742;4.224;2022-10-20T15:15:26;23.50;99.90
20712;DHT22;10517;50.742;4.224;2022-10-20T15:22:56;23.20;99.90
20712;DHT22;10517;50.742;4.224;2022-10-20T15:25:28;23.20;99.90
20712;DHT22;10517;50.742;4.224;2022-10-20T15:27:57;23.10;99.90
20712;DHT22;10517;50.742;4.224;2022-10-20T15:30:24;23.10;99.90
20712;DHT22;10517;50.742;4.224;2022-10-20T15:32:51;22.90;99.90
20712;DHT22;10517;50.742;4.224;2022-10-20T15:35:19;22.80;99.90
20712;DHT22;10517;50.742;4.224;2022-10-20T15:37:51;22.80;99.90
20712;DHT22;10517;50.742;4.224;2022-10-20T15:40:17;22.60;99.90
20712;DHT22;10517;50.742;4.224;2022-10-20T15:42:43;22.50;99.90
20712;DHT22;10517;50.742;4.224;2022-10-20T15:45:20;22.40;99.90
20712;DHT22;10517;50.742;4.224;2022-10-20T15:47:47;22.30;99.90
20712;DHT22;10517;50.742;4.224;2022-10-20T15:50:14;22.10;99.90
20712;DHT22;10517;50.742;4.224;2022-10-20T15:52:40;22.00;99.90
20712;DHT22;10517;50.742;4.224;2022-10-20T15:55:23;22.00;99.90
20712;DHT22;10517;50.742;4.224;2022-10-20T15:57:51;21.80;99.90
20712;DHT22;10517;50.742;4.224;2022-10-20T16:00:18;21.70;99.90
20712;DHT22;10517;50.742;4.224;2022-10-20T16:02:44;21.60;99.90
20712;DHT22;10517;50.742;4.224;2022-10-20T16:05:10;21.50;99.90
20712;DHT22;10517;50.742;4.224;2022-10-20T16:07:36;21.50;99.90
20712;DHT22;10517;50.742;4.224;2022-10-20T16:10:03;21.30;99.90
20712;DHT22;10517;50.742;4.224;2022-10-20T16:12:29;21.20;99.90
20712;DHT22;10517;50.742;4.224;2022-10-20T16:14:54;21.20;99.90
20712;DHT22;10517;50.742;4.224;2022-10-20T16:17:20;21.10;99.90
20712;DHT22;10517;50.742;4.224;2022-10-20T16:19:45;21.00;99.90
20712;DHT22;10517;50.742;4.224;2022-10-20T16:22:11;21.10;99.90
20712;DHT22;10517;50.742;4.224;2022-10-20T16:24:36;21.00;99.90
20712;DHT22;10517;50.742;4.224;2022-10-20T16:27:02;20.90;99.90
20712;DHT22;10517;50.742;4.224;2022-10-20T16:29:30;20.90;99.90
20712;DHT22;10517;50.742;4.224;2022-10-20T16:31:56;20.90;99.90
20712;DHT22;10517;50.742;4.224;2022-10-20T16:34:23;20.90;99.90
20712;DHT22;10517;50.742;4.224;2022-10-20T16:36:49;20.90;99.90
20712;DHT22;10517;50.742;4.224;2022-10-20T16:39:15;20.70;99.90
20712;DHT22;10517;50.742;4.224;2022-10-20T16:41:42;20.80;99.90
20712;DHT22;10517;50.742;4.224;2022-10-20T16:44:07;20.80;99.90
20712;DHT22;10517;50.742;4.224;2022-10-20T16:46:33;20.80;99.90
20712;DHT22;10517;50.742;4.224;2022-10-20T16:48:59;20.60;99.90
20712;DHT22;10517;50.742;4.224;2022-10-20T16:51:24;20.60;99.90
20712;DHT22;10517;50.742;4.224;2022-10-20T16:53:50;20.50;99.90
20712;DHT22;10517;50.742;4.224;2022-10-20T16:56:17;20.50;99.90
20712;DHT22;10517;50.742;4.224;2022-10-20T16:58:43;20.30;99.90
20712;DHT22;10517;50.742;4.224;2022-10-20T17:01:10;20.20;99.90
20712;DHT22;10517;50.742;4.224;2022-10-20T17:03:41;20.10;99.90
20712;DHT22;10517;50.742;4.224;2022-10-20T17:06:08;20.00;99.90
20712;DHT22;10517;50.742;4.224;2022-10-20T17:08:35;19.90;99.90
20712;DHT22;10517;50.742;4.224;2022-10-20T17:11:09;19.80;99.90
20712;DHT22;10517;50.742;4.224;2022-10-20T17:13:36;19.70;99.90
20712;DHT22;10517;50.742;4.224;2022-10-20T17:16:08;19.60;99.90
20712;DHT22;10517;50.742;4.224;2022-10-20T17:18:34;19.50;99.90
20712;DHT22;10517;50.742;4.224;2022-10-20T17:21:00;19.50;99.90
20712;DHT22;10517;50.742;4.224;2022-10-20T17:23:25;19.60;99.90
20712;DHT22;10517;50.742;4.224;2022-10-20T17:25:52;19.60;99.90
20712;DHT22;10517;50.742;4.224;2022-10-20T17:28:18;19.50;99.90
20712;DHT22;10517;50.742;4.224;2022-10-20T17:30:45;19.40;99.90
20712;DHT22;10517;50.742;4.224;2022-10-20T17:33:11;19.40;99.90
20712;DHT22;10517;50.742;4.224;2022-10-20T17:35:37;19.30;99.90
20712;DHT22;10517;50.742;4.224;2022-10-20T17:38:04;19.20;99.90
20712;DHT22;10517;50.742;4.224;2022-10-20T17:40:30;19.10;99.90
20712;DHT22;10517;50.742;4.224;2022-10-20T17:42:59;19.00;99.90
20712;DHT22;10517;50.742;4.224;2022-10-20T17:45:25;19.00;99.90
20712;DHT22;10517;50.742;4.224;2022-10-20T17:47:50;18.90;99.90
20712;DHT22;10517;50.742;4.224;2022-10-20T17:50:17;18.80;99.90